Time;durP1;ratioP1;P1;durP2;ratioP2;P2;SDS_P1;SDS_P2;PMS_P1;PMS_P2;Temp;Humidity;BMP_temperature;BMP_pressure;BME280_temperature;BME280_humidity;BME280_pressure;Samples;Min_cycle;Max_cycle;Signal;HPM_P1;HPM_P2
2021/06/30 00:01:07;;;;;;;;;;;;;;;21.69;56.82;100662.59;5056900;28;791;-37
2021/06/30 00:03:32;;;;;;;;;;;;;;;21.46;57.60;100661.72;5056382;28;780;-37
2021/06/30 00:05:58;;;;;;;;;;;;;;;21.02;59.12;100663.16;5056391;28;756;-37
2021/06/30 00:08:23;;;;;;;;;;;;;;;21.13;57.54;100656.28;5057029;28;878;-37
2021/06/30 00:10:49;;;;;;;;;;;;;;;20.98;59.10;100653.84;5056406;28;748;-37
2021/06/30 00:13:14;;;;;;;;;;;;;;;21.38;58.01;100654.13;5056777;28;760;-37
2021/06/30 00:15:40;;;;;;;;;;;;;;;21.50;57.51;100654.44;5056338;28;1022;-54
2021/06/30 00:18:05;;;;;;;;;;;;;;;21.51;57.53;100658.81;5056258;28;1910;-37
2021/06/30 00:20:31;;;;;;;;;;;;;;;21.57;57.18;100658.75;5056727;28;767;-37
2021/06/30 00:22:56;;;;;;;;;;;;;;;21.65;57.06;100666.31;5056326;28;799;-48
2021/06/30 00:25:22;;;;;;;;;;;;;;;21.77;56.54;100663.00;5056198;28;1024;-38
2021/06/30 00:27:48;;;;;;;;;;;;;;;21.52;56.84;100666.03;5056674;28;894;-37
2021/06/30 00:30:14;;;;;;;;;;;;;;;21.72;56.98;100672.22;5056745;28;967;-37
2021/06/30 00:32:39;;;;;;;;;;;;;;;21.41;58.63;100659.03;5038672;28;1410;-37
2021/06/30 00:35:05;;;;;;;;;;;;;;;21.36;59.16;100665.50;5056141;28;828;-37
2021/06/30 00:37:30;;;;;;;;;;;;;;;21.18;57.47;100671.94;5056211;28;1972;-37
2021/06/30 00:39:56;;;;;;;;;;;;;;;21.33;59.43;100679.13;5056383;28;756;-37
2021/06/30 00:42:21;;;;;;;;;;;;;;;21.67;58.79;100667.66;5037690;28;827;-37
2021/06/30 00:44:47;;;;;;;;;;;;;;;21.79;58.50;100671.81;5055937;28;1029;-37
2021/06/30 00:47:12;;;;;;;;;;;;;;;21.75;58.85;100662.50;5056628;28;744;-37
2021/06/30 00:49:38;;;;;;;;;;;;;;;21.47;59.72;100677.16;5055635;28;740;-38
2021/06/30 00:52:04;;;;;;;;;;;;;;;21.33;60.52;100676.34;5038712;28;1182;-37
2021/06/30 00:54:29;;;;;;;;;;;;;;;21.13;59.40;100672.06;5056385;28;796;-37
2021/06/30 00:56:55;;;;;;;;;;;;;;;20.98;60.11;100673.19;5055787;28;1930;-37
2021/06/30 00:59:20;;;;;;;;;;;;;;;21.48;60.98;100662.19;5055858;28;1010;-37
2021/06/30 01:01:45;;;;;;;;;;;;;;;21.78;59.74;100668.22;5056483;28;808;-37
2021/06/30 01:04:11;;;;;;;;;;;;;;;22.02;58.96;100664.34;5055717;28;784;-38
2021/06/30 01:06:36;;;;;;;;;;;;;;;22.11;58.52;100668.00;5056450;28;848;-38
2021/06/30 01:09:03;;;;;;;;;;;;;;;21.66;60.03;100663.22;5056139;28;756;-37
2021/06/30 01:11:29;;;;;;;;;;;;;;;21.41;60.90;100667.34;5055921;28;760;-44
2021/06/30 01:13:55;;;;;;;;;;;;;;;21.10;58.31;100661.63;5055603;28;979;-37
2021/06/30 01:16:20;;;;;;;;;;;;;;;21.35;59.83;100652.81;5056205;28;748;-57
2021/06/30 01:18:46;;;;;;;;;;;;;;;21.61;60.37;100643.97;5059479;28;1979;-37
2021/06/30 01:21:12;;;;;;;;;;;;;;;21.80;59.55;100635.53;5060071;28;791;-37
2021/06/30 01:23:38;;;;;;;;;;;;;;;21.87;59.23;100632.31;5059727;28;1024;-37
2021/06/30 01:26:03;;;;;;;;;;;;;;;22.05;58.74;100636.06;5059916;28;755;-37
2021/06/30 01:28:29;;;;;;;;;;;;;;;21.46;58.92;100636.81;5059917;28;764;-37
2021/06/30 01:30:55;;;;;;;;;;;;;;;21.25;60.17;100630.06;5059428;28;1006;-38
2021/06/30 01:33:20;;;;;;;;;;;;;;;21.00;58.66;100643.31;5059475;28;810;-37
2021/06/30 01:35:46;;;;;;;;;;;;;;;21.32;61.06;100647.91;5059769;28;776;-39
2021/06/30 01:38:11;;;;;;;;;;;;;;;21.70;59.78;100646.84;5059402;28;1973;-38
2021/06/30 01:40:37;;;;;;;;;;;;;;;21.81;59.39;100642.69;5059477;28;764;-37
2021/06/30 01:43:02;;;;;;;;;;;;;;;22.02;58.93;100647.72;5059689;28;824;-37
2021/06/30 01:45:28;;;;;;;;;;;;;;;21.43;60.59;100645.72;5024863;28;1071;-37
2021/06/30 01:47:53;;;;;;;;;;;;;;;21.43;60.80;100648.47;5059201;28;772;-37
2021/06/30 01:50:19;;;;;;;;;;;;;;;21.11;58.75;100653.03;5059712;28;792;-37
2021/06/30 01:52:44;;;;;;;;;;;;;;;21.18;60.46;100647.06;5059437;28;820;-37
2021/06/30 01:55:10;;;;;;;;;;;;;;;21.52;60.79;100652.19;5059102;28;815;-37
2021/06/30 01:57:45;;;;;;;;;;;;;;;22.04;58.96;100651.00;5059138;28;1905;-38
2021/06/30 02:00:12;;;;;;;;;;;;;;;21.88;59.11;100651.38;5059113;28;963;-37
2021/06/30 02:02:37;;;;;;;;;;;;;;;21.85;59.17;100653.94;5059039;28;760;-37
2021/06/30 02:05:10;;;;;;;;;;;;;;;21.62;59.74;100655.88;5041178;28;772;-37
2021/06/30 02:07:35;;;;;;;;;;;;;;;21.41;60.85;100656.28;5059277;28;816;-37
2021/06/30 02:10:01;;;;;;;;;;;;;;;21.15;59.64;100659.59;5059087;28;796;-37
2021/06/30 02:12:27;;;;;;;;;;;;;;;20.90;59.91;100663.69;5058983;28;720;-37
2021/06/30 02:14:52;;;;;;;;;;;;;;;21.43;61.19;100662.31;5058718;28;958;-37
2021/06/30 02:17:19;;;;;;;;;;;;;;;21.79;60.04;100671.81;5058647;28;1926;-37
2021/06/30 02:19:49;;;;;;;;;;;;;;;21.87;59.61;100673.84;5058734;28;765;-38
2021/06/30 02:22:15;;;;;;;;;;;;;;;21.84;59.51;100674.47;5059004;28;807;-38
2021/06/30 02:24:40;;;;;;;;;;;;;;;21.92;59.18;100665.41;5058365;28;1068;-37
2021/06/30 02:27:06;;;;;;;;;;;;;;;21.43;60.65;100676.13;5058635;28;844;-37
2021/06/30 02:29:31;;;;;;;;;;;;;;;21.07;60.32;100679.66;5057990;28;966;-37
2021/06/30 02:31:57;;;;;;;;;;;;;;;20.71;58.31;100683.09;5040658;28;1269;-37
2021/06/30 02:34:22;;;;;;;;;;;;;;;21.03;60.62;100684.97;5058511;28;775;-37
2021/06/30 02:36:48;;;;;;;;;;;;;;;21.34;59.24;100683.53;5058492;28;1913;-37
2021/06/30 02:39:13;;;;;;;;;;;;;;;21.41;59.16;100678.41;5058181;28;744;-37
2021/06/30 02:41:38;;;;;;;;;;;;;;;21.36;57.62;100673.81;5058832;28;787;-37
2021/06/30 02:44:04;;;;;;;;;;;;;;;21.03;56.64;100684.97;5058333;28;1025;-37
2021/06/30 02:46:29;;;;;;;;;;;;;;;20.83;55.03;100686.19;5057866;28;859;-37
2021/06/30 02:48:55;;;;;;;;;;;;;;;20.67;53.58;100691.16;5058282;28;847;-38
2021/06/30 02:51:20;;;;;;;;;;;;;;;20.58;52.50;100678.31;5058422;28;851;-55
2021/06/30 02:53:46;;;;;;;;;;;;;;;20.59;52.80;100688.22;5057884;28;783;-39
2021/06/30 02:56:11;;;;;;;;;;;;;;;20.83;53.08;100686.19;5058438;28;771;-37
2021/06/30 02:58:36;;;;;;;;;;;;;;;20.75;54.44;100688.81;5058421;28;1914;-37
2021/06/30 03:01:02;;;;;;;;;;;;;;;20.82;55.01;100695.59;5057548;28;1054;-38
2021/06/30 03:03:27;;;;;;;;;;;;;;;20.89;56.42;100697.97;5058518;28;763;-35
2021/06/30 03:05:53;;;;;;;;;;;;;;;21.13;57.24;100705.25;5058127;28;768;-35
2021/06/30 03:08:18;;;;;;;;;;;;;;;21.25;57.81;100702.81;5057640;28;752;-49
2021/06/30 03:10:44;;;;;;;;;;;;;;;21.51;57.71;100697.53;5058100;28;768;-56
2021/06/30 03:13:09;;;;;;;;;;;;;;;21.69;57.70;100693.03;5057907;28;827;-35
2021/06/30 03:15:34;;;;;;;;;;;;;;;;;;5057103;28;888;-37
2021/06/30 03:18:00;;;;;;;;;;;;;;;21.31;59.27;100700.75;5057793;28;1922;-55
2021/06/30 03:20:25;;;;;;;;;;;;;;;20.97;57.84;100696.41;5057885;28;787;-36
2021/06/30 03:22:51;;;;;;;;;;;;;;;21.23;60.65;100707.81;5057763;28;836;-42
2021/06/30 03:25:16;;;;;;;;;;;;;;;21.56;59.62;100695.81;5057608;28;1306;-43
2021/06/30 03:27:42;;;;;;;;;;;;;;;21.45;60.06;100696.03;5057356;28;796;-56
2021/06/30 03:30:08;;;;;;;;;;;;;;;21.80;58.98;100690.06;5057404;28;991;-36
2021/06/30 03:32:33;;;;;;;;;;;;;;;21.69;59.50;100700.53;5057317;28;807;-56
2021/06/30 03:34:59;;;;;;;;;;;;;;;21.41;60.64;100695.00;5057610;28;830;-35
2021/06/30 03:37:24;;;;;;;;;;;;;;;21.41;60.50;100700.53;5057349;28;1910;-38
2021/06/30 03:39:50;;;;;;;;;;;;;;;21.18;58.54;100703.22;5056570;28;748;-36
2021/06/30 03:42:16;;;;;;;;;;;;;;;21.56;60.33;100701.38;5057335;28;788;-36
2021/06/30 03:44:41;;;;;;;;;;;;;;;21.79;60.11;100707.78;5056993;28;963;-55
2021/06/30 03:47:06;;;;;;;;;;;;;;;22.14;59.18;100706.16;5052100;28;1193;-36
2021/06/30 03:49:32;;;;;;;;;;;;;;;22.17;59.05;100704.69;5047319;28;1293;-56
2021/06/30 03:51:57;;;;;;;;;;;;;;;21.80;59.99;100713.03;5041997;28;1285;-38
2021/06/30 03:54:25;;;;;;;;;;;;;;;21.68;60.64;100715.50;5037404;28;816;-60
2021/06/30 03:56:53;;;;;;;;;;;;;;;21.20;59.89;100717.53;5037348;28;1910;-55
2021/06/30 03:59:19;;;;;;;;;;;;;;;21.13;59.97;100711.59;5037166;28;952;-36
2021/06/30 04:01:45;;;;;;;;;;;;;;;21.43;60.72;100716.81;5036734;28;844;-58
2021/06/30 04:04:12;;;;;;;;;;;;;;;21.69;60.60;100706.06;5037297;28;784;-55
2021/06/30 04:06:38;;;;;;;;;;;;;;;21.97;59.95;100706.00;5037224;28;816;-36
2021/06/30 04:09:04;;;;;;;;;;;;;;;21.68;58.41;100704.41;5036519;28;756;-56
2021/06/30 04:11:29;;;;;;;;;;;;;;;21.42;57.10;100707.72;5050420;28;1012;-40
2021/06/30 04:13:55;;;;;;;;;;;;;;;21.06;56.19;100711.19;5056708;28;998;-37
2021/06/30 04:16:21;;;;;;;;;;;;;;;21.13;54.73;100703.28;5056604;28;796;-56
2021/06/30 04:18:46;;;;;;;;;;;;;;;20.92;53.63;100700.09;5056329;28;1981;-43
2021/06/30 04:21:12;;;;;;;;;;;;;;;21.11;52.38;100702.78;5056737;28;815;-37
2021/06/30 04:23:37;;;;;;;;;;;;;;;20.88;52.33;100709.31;5056159;28;1171;-37
2021/06/30 04:26:03;;;;;;;;;;;;;;;20.91;52.56;100709.50;5056715;28;822;-37
2021/06/30 04:28:28;;;;;;;;;;;;;;;21.07;53.03;100701.78;5056314;28;783;-53
2021/06/30 04:30:54;;;;;;;;;;;;;;;20.94;54.97;100700.59;5055724;28;1014;-56
2021/06/30 04:33:19;;;;;;;;;;;;;;;20.97;56.28;100702.78;5055999;28;880;-43
2021/06/30 04:35:45;;;;;;;;;;;;;;;21.12;56.74;100709.94;5056419;28;795;-37
2021/06/30 04:38:10;;;;;;;;;;;;;;;;;;5055609;28;1910;-39
2021/06/30 04:40:35;;;;;;;;;;;;;;;21.29;57.65;100703.81;5056389;28;768;-36
2021/06/30 04:43:01;;;;;;;;;;;;;;;21.33;57.81;100712.31;5056270;28;776;-54
2021/06/30 04:45:26;;;;;;;;;;;;;;;21.42;58.07;100704.94;5055485;28;966;-43
2021/06/30 04:47:51;;;;;;;;;;;;;;;21.31;59.65;100711.81;5055858;28;791;-55
2021/06/30 04:50:17;;;;;;;;;;;;;;;21.17;58.77;100709.03;5056194;28;748;-36
2021/06/30 04:52:43;;;;;;;;;;;;;;;20.85;56.98;100714.31;5055536;28;743;-53
2021/06/30 04:55:09;;;;;;;;;;;;;;;21.08;60.41;100708.91;5056213;28;800;-36
2021/06/30 04:57:35;;;;;;;;;;;;;;;21.32;60.25;100719.81;5055674;28;1969;-57
2021/06/30 05:00:00;;;;;;;;;;;;;;;21.48;59.57;100706.47;5055297;28;967;-54
2021/06/30 05:02:26;;;;;;;;;;;;;;;21.48;59.46;100720.31;5056321;28;856;-37
2021/06/30 05:04:51;;;;;;;;;;;;;;;21.57;59.13;100719.59;5056436;28;787;-56
2021/06/30 05:07:17;;;;;;;;;;;;;;;21.35;60.14;100721.94;5055581;28;844;-37
2021/06/30 05:09:42;;;;;;;;;;;;;;;21.48;59.67;100720.31;5056030;28;917;-56
2021/06/30 05:12:08;;;;;;;;;;;;;;;21.18;58.67;100717.03;5055876;28;756;-36
2021/06/30 05:14:33;;;;;;;;;;;;;;;21.12;59.74;100721.00;5043428;28;1178;-57
2021/06/30 05:16:59;;;;;;;;;;;;;;;21.33;60.71;100712.31;5056156;28;1902;-44
2021/06/30 05:19:24;;;;;;;;;;;;;;;21.32;60.29;100714.28;5055635;28;780;-39
2021/06/30 05:21:50;;;;;;;;;;;;;;;21.32;60.52;100713.44;5055701;28;792;-36
2021/06/30 05:24:15;;;;;;;;;;;;;;;21.34;60.29;100717.53;5056124;28;1032;-57
2021/06/30 05:26:40;;;;;;;;;;;;;;;21.15;60.87;100714.88;5055553;28;772;-56
2021/06/30 05:29:06;;;;;;;;;;;;;;;;;;5055116;28;974;-35
2021/06/30 05:31:31;;;;;;;;;;;;;;;20.89;58.72;100711.78;5055917;28;804;-49
2021/06/30 05:33:57;;;;;;;;;;;;;;;21.24;61.19;100711.38;5055692;28;844;-36
2021/06/30 05:36:23;;;;;;;;;;;;;;;21.52;60.26;100703.94;5055522;28;775;-56
2021/06/30 05:38:48;;;;;;;;;;;;;;;21.57;59.93;100711.31;5055513;28;1965;-56
2021/06/30 05:41:14;;;;;;;;;;;;;;;21.72;59.65;100716.50;5055659;28;807;-55
2021/06/30 05:43:39;;;;;;;;;;;;;;;21.43;60.23;100716.81;5055470;28;827;-37
2021/06/30 05:46:05;;;;;;;;;;;;;;;21.17;61.78;100715.38;5055480;28;963;-42
2021/06/30 05:48:30;;;;;;;;;;;;;;;20.84;61.63;100706.34;5055592;28;816;-38
2021/06/30 05:50:56;;;;;;;;;;;;;;;20.88;60.28;100703.78;5055750;28;784;-37
2021/06/30 05:53:21;;;;;;;;;;;;;;;20.75;64.46;100708.16;5055683;28;812;-46
2021/06/30 05:55:47;;;;;;;;;;;;;;;21.11;65.14;100705.56;5055718;28;749;-52
2021/06/30 05:58:12;;;;;;;;;;;;;;;21.44;63.42;100705.44;5055305;28;1975;-56
2021/06/30 06:00:37;;;;;;;;;;;;;;;21.34;63.28;100706.47;5038811;28;955;-37
2021/06/30 06:03:03;;;;;;;;;;;;;;;21.39;62.82;100708.31;5035251;28;825;-56
2021/06/30 06:05:28;;;;;;;;;;;;;;;20.73;64.51;100708.44;5039032;28;836;-37
2021/06/30 06:07:54;;;;;;;;;;;;;;;20.42;63.40;100703.41;5038742;28;873;-55
2021/06/30 06:10:19;;;;;;;;;;;;;;;20.71;65.26;100715.44;5038890;28;772;-38
2021/06/30 06:12:45;;;;;;;;;;;;;;;21.17;63.71;100715.38;5039386;28;759;-49
2021/06/30 06:15:10;;;;;;;;;;;;;;;21.07;64.10;100712.81;5050957;28;968;-38
2021/06/30 06:17:36;;;;;;;;;;;;;;;20.66;64.88;100710.75;5041307;28;1914;-37
2021/06/30 06:20:03;;;;;;;;;;;;;;;20.39;66.12;100717.84;5059057;28;849;-52
2021/06/30 06:22:28;;;;;;;;;;;;;;;19.88;63.67;100716.69;5055807;28;1120;-37
2021/06/30 06:24:54;;;;;;;;;;;;;;;20.43;65.31;100727.16;5058109;28;1187;-36
2021/06/30 06:27:19;;;;;;;;;;;;;;;20.45;65.12;100727.66;5041333;28;1083;-37
2021/06/30 06:29:48;;;;;;;;;;;;;;;20.54;63.99;100733.34;5048905;28;960;-37
2021/06/30 06:32:14;;;;;;;;;;;;;;;20.29;64.50;100726.28;5039120;28;807;-53
2021/06/30 06:34:39;;;;;;;;;;;;;;;20.52;63.30;100725.38;5038906;28;1166;-52
2021/06/30 06:37:05;;;;;;;;;;;;;;;20.30;60.77;100722.38;5038545;28;1914;-56
2021/06/30 06:39:30;;;;;;;;;;;;;;;20.40;60.24;100719.50;5038246;28;823;-38
2021/06/30 06:41:55;;;;;;;;;;;;;;;20.92;61.10;100719.44;5038333;28;1502;-38
2021/06/30 06:44:21;;;;;;;;;;;;;;;20.89;60.78;100711.78;5052205;28;872;-44
2021/06/30 06:46:46;;;;;;;;;;;;;;;21.10;60.43;100723.28;5039711;28;1532;-40
2021/06/30 06:49:12;;;;;;;;;;;;;;;20.87;59.75;100713.19;5058717;28;775;-38
2021/06/30 06:51:37;;;;;;;;;;;;;;;20.81;59.96;100720.75;5057971;28;932;-38
2021/06/30 06:54:03;;;;;;;;;;;;;;;20.78;57.82;100719.44;5058646;28;844;-40
2021/06/30 06:56:29;;;;;;;;;;;;;;;20.72;60.04;100720.66;5058267;28;808;-40
2021/06/30 06:58:54;;;;;;;;;;;;;;;21.18;60.63;100719.81;5037444;28;2371;-41
2021/06/30 07:01:20;;;;;;;;;;;;;;;21.43;61.96;100714.84;5038249;28;824;-38
2021/06/30 07:03:45;;;;;;;;;;;;;;;21.69;62.39;100714.38;5038445;28;803;-38
2021/06/30 07:06:11;;;;;;;;;;;;;;;21.67;63.04;100713.84;5056187;28;1442;-48
2021/06/30 07:08:36;;;;;;;;;;;;;;;21.58;64.90;100710.19;5058082;28;743;-37
2021/06/30 07:11:02;;;;;;;;;;;;;;;21.43;64.36;100716.81;5057837;28;760;-42
2021/06/30 07:13:27;;;;;;;;;;;;;;;21.25;62.35;100718.56;5057838;28;747;-38
2021/06/30 07:15:52;;;;;;;;;;;;;;;20.71;64.33;100710.72;5039354;28;999;-42
2021/06/30 07:18:18;;;;;;;;;;;;;;;20.95;67.34;100709.72;5037753;28;1914;-37
2021/06/30 07:20:44;;;;;;;;;;;;;;;20.55;70.06;100706.53;5037686;28;768;-36
2021/06/30 07:23:12;;;;;;;;;;;;;;;20.96;69.67;100705.84;5037941;28;799;-39
2021/06/30 07:25:38;;;;;;;;;;;;;;;21.24;67.75;100705.84;5045839;28;1458;-38
2021/06/30 07:28:03;;;;;;;;;;;;;;;21.09;67.80;100713.31;5056572;28;1350;-41
2021/06/30 07:30:29;;;;;;;;;;;;;;;21.13;68.30;100708.81;5043014;28;975;-41
2021/06/30 07:32:54;;;;;;;;;;;;;;;21.18;66.65;100708.75;5052557;28;839;-41
2021/06/30 07:35:20;;;;;;;;;;;;;;;21.09;67.05;100712.53;5057313;28;799;-38
2021/06/30 07:37:45;;;;;;;;;;;;;;;21.22;67.51;100708.94;5057441;28;1914;-41
2021/06/30 07:40:12;;;;;;;;;;;;;;;21.27;66.75;100719.09;5057315;28;760;-40
2021/06/30 07:42:37;;;;;;;;;;;;;;;21.06;68.23;100716.72;5057498;28;784;-36
2021/06/30 07:45:03;;;;;;;;;;;;;;;21.41;66.60;100711.59;5048821;28;1124;-38
2021/06/30 07:47:29;;;;;;;;;;;;;;;21.48;65.32;100711.19;5039370;28;1315;-37
2021/06/30 07:49:54;;;;;;;;;;;;;;;21.57;65.89;100705.78;5056891;28;800;-37
2021/06/30 07:52:20;;;;;;;;;;;;;;;21.64;64.54;100718.06;5057126;28;783;-38
2021/06/30 07:54:45;;;;;;;;;;;;;;;21.44;64.41;100707.41;5057345;28;843;-38
2021/06/30 07:57:11;;;;;;;;;;;;;;;21.12;64.42;100714.66;5056699;28;1978;-40
2021/06/30 07:59:36;;;;;;;;;;;;;;;21.15;66.18;100714.03;5049148;28;888;-39
2021/06/30 08:02:02;;;;;;;;;;;;;;;21.26;65.59;100706.38;5037158;28;1026;-40
2021/06/30 08:04:27;;;;;;;;;;;;;;;21.33;64.79;100713.13;5036675;28;743;-40
2021/06/30 08:06:53;;;;;;;;;;;;;;;21.53;64.88;100714.69;5036834;28;736;-39
2021/06/30 08:09:18;;;;;;;;;;;;;;;21.62;64.34;100706.47;5036809;28;776;-37
2021/06/30 08:11:43;;;;;;;;;;;;;;;21.50;64.69;100709.75;5036356;28;839;-37
2021/06/30 08:14:09;;;;;;;;;;;;;;;21.61;65.08;100709.56;5040052;28;1132;-38
2021/06/30 08:16:34;;;;;;;;;;;;;;;21.59;64.92;100706.28;5057095;28;814;-37
2021/06/30 08:19:00;;;;;;;;;;;;;;;21.68;64.41;100710.75;5056234;28;1913;-39
2021/06/30 08:21:25;;;;;;;;;;;;;;;21.45;64.53;100704.31;5056376;28;839;-38
2021/06/30 08:23:51;;;;;;;;;;;;;;;21.44;65.52;100704.63;5056629;28;1060;-39
2021/06/30 08:26:16;;;;;;;;;;;;;;;21.30;65.42;100710.16;5056347;28;768;-38
2021/06/30 08:28:42;;;;;;;;;;;;;;;21.30;65.68;100704.63;5056019;28;978;-40
2021/06/30 08:31:07;;;;;;;;;;;;;;;21.36;64.56;100693.16;5056344;28;847;-47
2021/06/30 08:33:33;;;;;;;;;;;;;;;21.40;65.42;100701.66;5056448;28;740;-38
2021/06/30 08:35:58;;;;;;;;;;;;;;;21.26;64.36;100709.16;5056092;28;744;-36
2021/06/30 08:38:23;;;;;;;;;;;;;;;21.10;64.58;100709.44;5056338;28;1978;-39
2021/06/30 08:40:53;;;;;;;;;;;;;;;21.26;65.41;100709.16;5056485;28;843;-39
2021/06/30 08:43:18;;;;;;;;;;;;;;;21.12;66.27;100701.66;5056103;28;840;-37
2021/06/30 08:45:44;;;;;;;;;;;;;;;21.11;66.07;100701.97;5056308;28;983;-40
2021/06/30 08:48:09;;;;;;;;;;;;;;;20.97;65.23;100699.19;5053697;28;1088;-36
2021/06/30 08:50:41;;;;;;;;;;;;;;;21.06;65.80;100693.78;5037733;28;820;-39
2021/06/30 08:53:09;;;;;;;;;;;;;;;21.09;64.94;100702.28;5038316;28;847;-37
2021/06/30 08:55:36;;;;;;;;;;;;;;;21.01;64.78;100691.91;5055959;28;868;-37
2021/06/30 08:58:01;;;;;;;;;;;;;;;21.06;65.41;100696.56;5055668;28;1917;-40
2021/06/30 09:00:27;;;;;;;;;;;;;;;21.25;64.18;100688.13;5055878;28;1316;-38
2021/06/30 09:02:58;;;;;;;;;;;;;;;21.02;64.23;100696.31;5037624;28;1331;-39
2021/06/30 09:07:50;;;;;;;;;;;;;;;20.99;64.71;100696.94;5056136;28;864;-38
2021/06/30 09:10:34;;;;;;;;;;;;;;;20.85;64.93;100689.44;5037024;28;1180;-36
2021/06/30 09:13:00;;;;;;;;;;;;;;;20.97;65.79;100690.88;5055181;28;1421;-36
2021/06/30 09:15:35;;;;;;;;;;;;;;;20.91;65.89;100692.94;5041189;28;959;-37
2021/06/30 09:18:17;;;;;;;;;;;;;;;20.99;65.60;100696.94;5035533;28;1977;-37
2021/06/30 09:20:43;;;;;;;;;;;;;;;20.95;66.41;100701.44;5034207;28;818;-37
2021/06/30 09:23:08;;;;;;;;;;;;;;;21.03;64.78;100703.50;5036082;28;894;-37
2021/06/30 09:25:35;;;;;;;;;;;;;;;20.92;64.52;100699.28;5035322;28;1155;-38
2021/06/30 09:28:10;;;;;;;;;;;;;;;21.05;65.15;100698.47;5036026;28;751;-37
2021/06/30 09:30:36;;;;;;;;;;;;;;;20.87;65.76;100699.38;5051544;28;1006;-38
2021/06/30 09:33:02;;;;;;;;;;;;;;;20.85;66.45;100700.50;5054996;28;775;-39
2021/06/30 09:35:29;;;;;;;;;;;;;;;21.13;66.16;100692.25;5049400;28;1199;-36
2021/06/30 09:37:54;;;;;;;;;;;;;;;21.04;66.11;100694.06;5054166;28;1922;-38
2021/06/30 09:40:20;;;;;;;;;;;;;;;21.23;65.62;100685.69;5057629;28;1203;-37
2021/06/30 09:42:46;;;;;;;;;;;;;;;21.05;66.18;100684.66;5058497;28;1184;-37
2021/06/30 09:45:14;;;;;;;;;;;;;;;20.94;64.52;100680.44;5038938;28;851;-37
2021/06/30 09:47:43;;;;;;;;;;;;;;;21.03;64.75;100681.38;5058573;28;1210;-38
2021/06/30 09:50:09;;;;;;;;;;;;;;;21.12;66.07;100673.19;5059651;28;799;-39
2021/06/30 09:52:39;;;;;;;;;;;;;;;21.14;66.44;100674.53;5041313;28;1461;-38
2021/06/30 09:55:21;;;;;;;;;;;;;;;21.07;66.99;100674.13;5059193;28;803;-36
2021/06/30 09:57:46;;;;;;;;;;;;;;;21.02;66.49;100666.72;5059185;28;1913;-38
2021/06/30 10:00:12;;;;;;;;;;;;;;;21.07;65.90;100665.81;5037770;28;1266;-37
2021/06/30 10:02:40;;;;;;;;;;;;;;;20.90;67.61;100662.84;5039420;28;879;-37
2021/06/30 10:05:08;;;;;;;;;;;;;;;21.00;65.62;100662.66;5039421;28;855;-38
2021/06/30 10:07:33;;;;;;;;;;;;;;;21.02;64.37;100665.91;5039065;28;795;-39
2021/06/30 10:10:00;;;;;;;;;;;;;;;20.92;65.75;100655.88;5039016;28;752;-44
2021/06/30 10:12:26;;;;;;;;;;;;;;;21.14;65.97;100652.41;5039018;28;910;-38
2021/06/30 10:14:52;;;;;;;;;;;;;;;21.07;66.46;100640.94;5048624;28;1014;-39
2021/06/30 10:17:17;;;;;;;;;;;;;;;21.23;65.81;100651.69;5058804;28;1918;-38
2021/06/30 10:19:43;;;;;;;;;;;;;;;21.14;65.47;100646.88;5058092;28;1124;-37
2021/06/30 10:22:09;;;;;;;;;;;;;;;20.94;66.01;100647.28;5057674;28;953;-37
2021/06/30 10:24:35;;;;;;;;;;;;;;;21.00;66.31;100646.06;5058689;28;1243;-38
2021/06/30 10:27:00;;;;;;;;;;;;;;;20.97;65.49;100647.50;5058440;28;812;-37
2021/06/30 10:29:29;;;;;;;;;;;;;;;20.97;65.36;100653.03;5058539;28;1081;-37
2021/06/30 10:31:56;;;;;;;;;;;;;;;21.11;66.46;100639.22;5041469;28;790;-38
2021/06/30 10:34:27;;;;;;;;;;;;;;;21.00;67.00;100651.59;5058219;28;816;-38
2021/06/30 10:36:55;;;;;;;;;;;;;;;21.00;67.26;100635.00;5040604;28;1398;-38
2021/06/30 10:39:36;;;;;;;;;;;;;;;21.31;66.82;100632.41;5058783;28;2115;-37
2021/06/30 10:42:15;;;;;;;;;;;;;;;21.28;66.33;100635.81;5058545;28;772;-36
2021/06/30 10:45:03;;;;;;;;;;;;;;;21.20;65.24;100633.75;5058110;28;955;-37
2021/06/30 10:47:29;;;;;;;;;;;;;;;21.27;66.45;100627.81;5044975;28;1939;-37
2021/06/30 10:50:13;;;;;;;;;;;;;;;21.01;66.88;100636.63;5058122;28;767;-38
2021/06/30 10:52:38;;;;;;;;;;;;;;;21.30;66.58;100632.72;5058466;28;804;-37
2021/06/30 10:55:04;;;;;;;;;;;;;;;21.24;67.17;100639.47;5057930;28;724;-38
2021/06/30 10:57:30;;;;;;;;;;;;;;;21.25;67.08;100630.91;5058318;28;1977;-37
2021/06/30 10:59:58;;;;;;;;;;;;;;;21.26;67.01;100632.53;5058344;28;959;-37
2021/06/30 11:02:24;;;;;;;;;;;;;;;21.23;67.08;100632.34;5057940;28;819;-37
2021/06/30 11:04:49;;;;;;;;;;;;;;;21.07;66.64;100632.66;5057870;28;772;-38
2021/06/30 11:07:41;;;;;;;;;;;;;;;21.35;66.28;100632.63;5058328;28;732;-41
2021/06/30 11:10:21;;;;;;;;;;;;;;;21.10;67.43;100622.94;5053345;28;1670;-39
2021/06/30 11:12:56;;;;;;;;;;;;;;;21.17;67.20;100629.66;5057956;28;792;-38
2021/06/30 11:15:37;;;;;;;;;;;;;;;21.15;68.12;100623.66;5058074;28;959;-41
2021/06/30 11:18:23;;;;;;;;;;;;;;;21.24;66.98;100626.50;5056207;28;1913;-41
2021/06/30 11:20:49;;;;;;;;;;;;;;;21.12;66.81;100615.13;5040815;28;2315;-38
2021/06/30 11:23:18;;;;;;;;;;;;;;;21.28;67.27;100618.38;5057797;28;787;-49
2021/06/30 11:25:44;;;;;;;;;;;;;;;21.34;66.74;100619.94;5056949;28;1058;-38
2021/06/30 11:28:29;;;;;;;;;;;;;;;21.33;66.97;100609.97;5057694;28;752;-36
2021/06/30 11:30:54;;;;;;;;;;;;;;;21.49;67.15;100607.69;5038783;28;944;-40
2021/06/30 11:33:20;;;;;;;;;;;;;;;21.46;66.43;100605.53;5037262;28;788;-37
2021/06/30 11:35:46;;;;;;;;;;;;;;;21.36;66.32;100606.59;5037630;28;839;-37
2021/06/30 11:38:34;;;;;;;;;;;;;;;21.45;67.31;100613.03;5037365;28;1969;-38
2021/06/30 11:41:10;;;;;;;;;;;;;;;21.31;67.93;100604.75;5043583;28;1641;-38
2021/06/30 11:43:43;;;;;;;;;;;;;;;21.25;68.10;100603.25;5048709;28;812;-42
2021/06/30 11:46:09;;;;;;;;;;;;;;;21.33;67.63;100598.91;5037000;28;813;-38
2021/06/30 11:48:35;;;;;;;;;;;;;;;21.37;66.72;100606.28;5037185;28;775;-39
2021/06/30 11:51:13;;;;;;;;;;;;;;;21.46;67.16;100602.78;5037594;28;799;-39
2021/06/30 11:53:43;;;;;;;;;;;;;;;21.47;66.92;100604.44;5037148;28;760;-39
2021/06/30 11:56:09;;;;;;;;;;;;;;;21.41;66.88;100586.31;5037125;28;787;-38
2021/06/30 11:58:39;;;;;;;;;;;;;;;21.56;66.81;100586.00;5019277;28;1960;-38
2021/06/30 12:01:13;;;;;;;;;;;;;;;21.36;66.98;100581.69;5036052;28;799;-37
2021/06/30 12:03:39;;;;;;;;;;;;;;;21.13;66.77;100589.13;5037071;28;764;-38
2021/06/30 12:06:04;;;;;;;;;;;;;;;21.18;67.85;100581.53;5019058;28;756;-38
2021/06/30 12:08:30;;;;;;;;;;;;;;;21.46;67.15;100584.25;5036742;28;752;-38
2021/06/30 12:10:56;;;;;;;;;;;;;;;21.53;66.80;100579.13;5036849;28;764;-39
2021/06/30 12:13:21;;;;;;;;;;;;;;;21.63;66.72;100578.06;5036995;28;744;-38
2021/06/30 12:15:46;;;;;;;;;;;;;;;21.49;66.94;100583.63;5036100;28;959;-38
2021/06/30 12:18:12;;;;;;;;;;;;;;;21.37;66.79;100580.56;5036651;28;1967;-39
2021/06/30 12:20:37;;;;;;;;;;;;;;;21.37;67.29;100583.34;5036560;28;752;-38
2021/06/30 12:23:03;;;;;;;;;;;;;;;21.34;66.95;100586.75;5037010;28;788;-41
2021/06/30 12:25:30;;;;;;;;;;;;;;;21.23;67.43;100572.31;5036280;28;1035;-39
2021/06/30 12:28:03;;;;;;;;;;;;;;;21.24;67.64;100575.88;5036486;28;851;-40
2021/06/30 12:30:29;;;;;;;;;;;;;;;21.39;66.19;100574.72;5051448;28;1002;-38
2021/06/30 12:33:00;;;;;;;;;;;;;;;21.25;67.12;100574.75;5056482;28;744;-40
2021/06/30 12:35:27;;;;;;;;;;;;;;;21.26;66.87;100571.69;5056310;28;752;-39
2021/06/30 12:37:53;;;;;;;;;;;;;;;21.31;66.15;100573.53;5056279;28;1909;-38
2021/06/30 12:40:18;;;;;;;;;;;;;;;21.33;66.02;100571.25;5056126;28;744;-38
2021/06/30 12:42:47;;;;;;;;;;;;;;;21.35;67.15;100569.03;5056386;28;795;-39
2021/06/30 12:45:13;;;;;;;;;;;;;;;21.32;65.88;100566.84;5055927;28;1006;-39
2021/06/30 12:47:55;;;;;;;;;;;;;;;21.13;67.40;100576.13;5055761;28;824;-38
2021/06/30 12:50:39;;;;;;;;;;;;;;;21.33;65.73;100568.50;5056675;28;736;-38
2021/06/30 12:53:06;;;;;;;;;;;;;;;21.28;66.20;100565.84;5055935;28;791;-39
2021/06/30 12:55:47;;;;;;;;;;;;;;;21.15;67.02;100564.75;5055911;28;748;-38